Terminal Aerodrome Forecast
Issued by NWS Mt. Holly, NJ

Home | Current Version | Previous Version | Text Only | Print | Product List | Glossary On
Versions: 1 2 3 4 5 6 7 8 9 10 11 12 13 14 15 16 17 18 19 20 21 22 23 24 25 26
000
FTUS41 KPHI 210900 AAB
TAFACY
TAF AMD
KACY 210903Z 2109/2206 VRB04KT 5SM BR SCT004 BKN015
      TEMPO 2109/2112 2SM -DZ BR OVC004
     FM211500 06005KT P6SM SCT020 BKN200
     FM211900 21007KT P6SM BKN250
     FM220500 27005KT P6SM SCT050=

USA.gov is the U.S. government's official web portal to all federal, state and local government web resources and services.